sensor_id;sensor_type;location;lat;lon;timestamp;P1;durP1;ratioP1;P2;durP2;ratioP2
5823;SDS011;2938;52.254;12.988;2023-03-01T00:01:07;10.10;;;6.40;;
5823;SDS011;2938;52.254;12.988;2023-03-01T00:03:37;14.95;;;6.60;;
5823;SDS011;2938;52.254;12.988;2023-03-01T00:06:02;10.07;;;5.53;;
5823;SDS011;2938;52.254;12.988;2023-03-01T00:08:28;10.43;;;6.63;;
5823;SDS011;2938;52.254;12.988;2023-03-01T00:11:02;10.98;;;5.43;;
5823;SDS011;2938;52.254;12.988;2023-03-01T00:13:31;12.38;;;5.65;;
5823;SDS011;2938;52.254;12.988;2023-03-01T00:15:57;11.00;;;5.03;;
5823;SDS011;2938;52.254;12.988;2023-03-01T00:18:22;10.75;;;6.40;;
5823;SDS011;2938;52.254;12.988;2023-03-01T00:20:52;8.45;;;5.70;;
5823;SDS011;2938;52.254;12.988;2023-03-01T00:23:21;7.07;;;4.63;;
5823;SDS011;2938;52.254;12.988;2023-03-01T00:25:50;10.02;;;5.57;;
5823;SDS011;2938;52.254;12.988;2023-03-01T00:28:15;12.45;;;6.25;;
5823;SDS011;2938;52.254;12.988;2023-03-01T00:30:41;9.23;;;5.65;;
5823;SDS011;2938;52.254;12.988;2023-03-01T00:33:06;9.15;;;6.03;;
5823;SDS011;2938;52.254;12.988;2023-03-01T00:35:32;9.38;;;4.35;;
5823;SDS011;2938;52.254;12.988;2023-03-01T00:37:57;9.63;;;4.57;;
5823;SDS011;2938;52.254;12.988;2023-03-01T00:40:24;11.77;;;5.70;;
5823;SDS011;2938;52.254;12.988;2023-03-01T00:42:50;7.90;;;4.82;;
5823;SDS011;2938;52.254;12.988;2023-03-01T00:45:15;11.63;;;5.55;;
5823;SDS011;2938;52.254;12.988;2023-03-01T00:47:43;13.73;;;5.20;;
5823;SDS011;2938;52.254;12.988;2023-03-01T00:50:09;8.48;;;5.05;;
5823;SDS011;2938;52.254;12.988;2023-03-01T00:52:35;9.98;;;5.20;;
5823;SDS011;2938;52.254;12.988;2023-03-01T00:55:00;11.32;;;5.10;;
5823;SDS011;2938;52.254;12.988;2023-03-01T00:57:25;9.70;;;5.30;;
5823;SDS011;2938;52.254;12.988;2023-03-01T01:00:09;7.82;;;5.25;;
5823;SDS011;2938;52.254;12.988;2023-03-01T01:02:37;7.65;;;4.80;;
5823;SDS011;2938;52.254;12.988;2023-03-01T01:05:03;8.15;;;4.78;;
5823;SDS011;2938;52.254;12.988;2023-03-01T01:07:29;10.07;;;5.82;;
5823;SDS011;2938;52.254;12.988;2023-03-01T01:09:54;12.88;;;5.95;;
5823;SDS011;2938;52.254;12.988;2023-03-01T01:12:25;10.90;;;4.75;;
5823;SDS011;2938;52.254;12.988;2023-03-01T01:18:18;8.52;;;5.20;;
5823;SDS011;2938;52.254;12.988;2023-03-01T01:20:44;7.68;;;5.03;;
5823;SDS011;2938;52.254;12.988;2023-03-01T01:23:09;7.00;;;5.05;;
5823;SDS011;2938;52.254;12.988;2023-03-01T01:25:47;10.45;;;6.03;;
5823;SDS011;2938;52.254;12.988;2023-03-01T01:28:19;12.10;;;5.90;;
5823;SDS011;2938;52.254;12.988;2023-03-01T01:33:09;7.25;;;5.13;;
5823;SDS011;2938;52.254;12.988;2023-03-01T01:35:35;10.70;;;5.35;;
5823;SDS011;2938;52.254;12.988;2023-03-01T01:40:42;10.60;;;5.28;;
5823;SDS011;2938;52.254;12.988;2023-03-01T01:43:13;14.20;;;6.68;;
5823;SDS011;2938;52.254;12.988;2023-03-01T01:45:46;19.83;;;7.65;;
5823;SDS011;2938;52.254;12.988;2023-03-01T01:48:16;15.40;;;5.75;;
5823;SDS011;2938;52.254;12.988;2023-03-01T01:51:05;13.07;;;6.32;;
5823;SDS011;2938;52.254;12.988;2023-03-01T01:53:31;13.65;;;5.70;;
5823;SDS011;2938;52.254;12.988;2023-03-01T01:55:58;12.55;;;6.70;;
5823;SDS011;2938;52.254;12.988;2023-03-01T01:58:28;7.47;;;5.80;;
5823;SDS011;2938;52.254;12.988;2023-03-01T02:00:54;12.07;;;6.00;;
5823;SDS011;2938;52.254;12.988;2023-03-01T02:03:24;10.20;;;5.80;;
5823;SDS011;2938;52.254;12.988;2023-03-01T02:08:33;10.70;;;6.40;;
5823;SDS011;2938;52.254;12.988;2023-03-01T02:11:00;12.98;;;6.20;;
5823;SDS011;2938;52.254;12.988;2023-03-01T02:13:26;7.78;;;5.38;;
5823;SDS011;2938;52.254;12.988;2023-03-01T02:15:52;11.40;;;5.70;;
5823;SDS011;2938;52.254;12.988;2023-03-01T02:18:18;13.13;;;6.20;;
5823;SDS011;2938;52.254;12.988;2023-03-01T02:21:07;8.25;;;4.95;;
5823;SDS011;2938;52.254;12.988;2023-03-01T02:23:37;10.73;;;5.30;;
5823;SDS011;2938;52.254;12.988;2023-03-01T02:26:07;11.23;;;5.70;;
5823;SDS011;2938;52.254;12.988;2023-03-01T02:28:38;14.63;;;5.47;;
5823;SDS011;2938;52.254;12.988;2023-03-01T02:31:06;13.45;;;7.10;;
5823;SDS011;2938;52.254;12.988;2023-03-01T02:33:53;9.70;;;4.78;;
5823;SDS011;2938;52.254;12.988;2023-03-01T02:36:20;14.85;;;7.13;;
5823;SDS011;2938;52.254;12.988;2023-03-01T02:38:50;17.50;;;6.80;;
5823;SDS011;2938;52.254;12.988;2023-03-01T02:41:17;12.75;;;6.43;;
5823;SDS011;2938;52.254;12.988;2023-03-01T02:43:44;10.60;;;5.80;;
5823;SDS011;2938;52.254;12.988;2023-03-01T02:46:14;12.55;;;7.10;;
5823;SDS011;2938;52.254;12.988;2023-03-01T02:48:44;9.98;;;6.07;;
5823;SDS011;2938;52.254;12.988;2023-03-01T02:56:43;11.48;;;5.95;;
5823;SDS011;2938;52.254;12.988;2023-03-01T02:59:09;11.60;;;5.60;;
5823;SDS011;2938;52.254;12.988;2023-03-01T03:01:34;10.35;;;7.03;;
5823;SDS011;2938;52.254;12.988;2023-03-01T03:04:03;11.25;;;6.20;;
5823;SDS011;2938;52.254;12.988;2023-03-01T03:06:33;12.30;;;6.35;;
5823;SDS011;2938;52.254;12.988;2023-03-01T03:08:58;10.32;;;5.40;;
5823;SDS011;2938;52.254;12.988;2023-03-01T03:11:24;11.05;;;6.68;;
5823;SDS011;2938;52.254;12.988;2023-03-01T03:13:49;10.95;;;6.82;;
5823;SDS011;2938;52.254;12.988;2023-03-01T03:16:16;13.30;;;6.05;;
5823;SDS011;2938;52.254;12.988;2023-03-01T03:18:44;12.20;;;7.20;;
5823;SDS011;2938;52.254;12.988;2023-03-01T03:21:10;16.35;;;6.72;;
5823;SDS011;2938;52.254;12.988;2023-03-01T03:23:36;10.75;;;6.18;;
5823;SDS011;2938;52.254;12.988;2023-03-01T03:26:02;13.50;;;6.25;;
5823;SDS011;2938;52.254;12.988;2023-03-01T03:28:29;17.17;;;7.85;;
5823;SDS011;2938;52.254;12.988;2023-03-01T03:30:55;8.18;;;5.03;;
5823;SDS011;2938;52.254;12.988;2023-03-01T03:33:43;9.48;;;5.72;;
5823;SDS011;2938;52.254;12.988;2023-03-01T03:36:16;13.10;;;6.97;;
5823;SDS011;2938;52.254;12.988;2023-03-01T03:38:42;17.63;;;7.10;;
5823;SDS011;2938;52.254;12.988;2023-03-01T03:41:09;8.07;;;5.68;;
5823;SDS011;2938;52.254;12.988;2023-03-01T03:43:35;13.73;;;7.22;;
5823;SDS011;2938;52.254;12.988;2023-03-01T03:46:09;14.20;;;7.78;;
5823;SDS011;2938;52.254;12.988;2023-03-01T03:48:42;17.23;;;7.60;;
5823;SDS011;2938;52.254;12.988;2023-03-01T03:51:12;10.65;;;6.32;;
5823;SDS011;2938;52.254;12.988;2023-03-01T03:53:39;16.05;;;6.57;;
5823;SDS011;2938;52.254;12.988;2023-03-01T03:56:04;11.05;;;6.53;;
5823;SDS011;2938;52.254;12.988;2023-03-01T03:58:30;12.30;;;6.80;;
5823;SDS011;2938;52.254;12.988;2023-03-01T04:00:59;11.93;;;6.38;;
5823;SDS011;2938;52.254;12.988;2023-03-01T04:03:26;8.73;;;6.05;;
5823;SDS011;2938;52.254;12.988;2023-03-01T04:05:52;11.20;;;7.35;;
5823;SDS011;2938;52.254;12.988;2023-03-01T04:08:25;13.68;;;7.03;;
5823;SDS011;2938;52.254;12.988;2023-03-01T04:10:52;12.20;;;7.65;;
5823;SDS011;2938;52.254;12.988;2023-03-01T04:13:47;13.10;;;6.13;;
5823;SDS011;2938;52.254;12.988;2023-03-01T04:16:13;19.58;;;8.40;;
5823;SDS011;2938;52.254;12.988;2023-03-01T04:18:38;20.27;;;7.68;;
5823;SDS011;2938;52.254;12.988;2023-03-01T04:21:06;13.73;;;7.07;;
5823;SDS011;2938;52.254;12.988;2023-03-01T04:23:31;11.88;;;7.80;;
5823;SDS011;2938;52.254;12.988;2023-03-01T04:25:57;11.07;;;6.75;;
5823;SDS011;2938;52.254;12.988;2023-03-01T04:28:33;13.70;;;8.45;;
5823;SDS011;2938;52.254;12.988;2023-03-01T04:31:07;12.77;;;7.50;;
5823;SDS011;2938;52.254;12.988;2023-03-01T04:36:07;9.35;;;5.10;;
5823;SDS011;2938;52.254;12.988;2023-03-01T04:38:34;10.00;;;7.15;;
5823;SDS011;2938;52.254;12.988;2023-03-01T04:41:10;17.40;;;8.70;;
5823;SDS011;2938;52.254;12.988;2023-03-01T04:43:36;10.43;;;6.07;;
5823;SDS011;2938;52.254;12.988;2023-03-01T04:46:02;9.63;;;6.15;;
5823;SDS011;2938;52.254;12.988;2023-03-01T04:48:31;11.25;;;6.88;;
5823;SDS011;2938;52.254;12.988;2023-03-01T04:50:59;9.40;;;5.50;;
5823;SDS011;2938;52.254;12.988;2023-03-01T04:53:25;11.95;;;6.68;;
5823;SDS011;2938;52.254;12.988;2023-03-01T04:55:50;13.50;;;6.85;;
5823;SDS011;2938;52.254;12.988;2023-03-01T04:58:18;21.10;;;7.20;;
5823;SDS011;2938;52.254;12.988;2023-03-01T05:00:44;20.95;;;6.43;;
5823;SDS011;2938;52.254;12.988;2023-03-01T05:03:09;10.98;;;5.80;;
5823;SDS011;2938;52.254;12.988;2023-03-01T05:05:41;10.07;;;6.47;;
5823;SDS011;2938;52.254;12.988;2023-03-01T05:08:09;13.65;;;7.18;;
5823;SDS011;2938;52.254;12.988;2023-03-01T05:10:42;15.85;;;5.63;;
5823;SDS011;2938;52.254;12.988;2023-03-01T05:13:12;11.20;;;6.60;;
5823;SDS011;2938;52.254;12.988;2023-03-01T05:15:46;15.80;;;7.43;;
5823;SDS011;2938;52.254;12.988;2023-03-01T05:18:13;11.95;;;6.72;;
5823;SDS011;2938;52.254;12.988;2023-03-01T05:20:38;15.02;;;6.55;;
5823;SDS011;2938;52.254;12.988;2023-03-01T05:23:10;14.63;;;7.80;;
5823;SDS011;2938;52.254;12.988;2023-03-01T05:25:35;16.15;;;6.82;;
5823;SDS011;2938;52.254;12.988;2023-03-01T05:28:04;9.95;;;6.43;;
5823;SDS011;2938;52.254;12.988;2023-03-01T05:30:34;9.38;;;6.40;;
5823;SDS011;2938;52.254;12.988;2023-03-01T05:32:59;13.07;;;7.55;;
5823;SDS011;2938;52.254;12.988;2023-03-01T05:35:25;13.05;;;7.75;;
5823;SDS011;2938;52.254;12.988;2023-03-01T05:37:51;17.95;;;7.75;;
5823;SDS011;2938;52.254;12.988;2023-03-01T05:40:17;19.05;;;8.25;;
5823;SDS011;2938;52.254;12.988;2023-03-01T05:45:16;10.68;;;6.60;;
5823;SDS011;2938;52.254;12.988;2023-03-01T05:47:43;13.07;;;7.22;;
5823;SDS011;2938;52.254;12.988;2023-03-01T05:50:17;11.65;;;8.27;;
5823;SDS011;2938;52.254;12.988;2023-03-01T05:52:57;11.70;;;7.22;;
5823;SDS011;2938;52.254;12.988;2023-03-01T05:55:29;14.57;;;7.35;;
5823;SDS011;2938;52.254;12.988;2023-03-01T05:58:19;10.52;;;6.43;;
5823;SDS011;2938;52.254;12.988;2023-03-01T06:00:50;10.75;;;6.57;;
5823;SDS011;2938;52.254;12.988;2023-03-01T06:06:50;10.93;;;6.63;;
5823;SDS011;2938;52.254;12.988;2023-03-01T06:09:36;16.35;;;7.93;;
5823;SDS011;2938;52.254;12.988;2023-03-01T06:12:10;14.95;;;7.95;;
5823;SDS011;2938;52.254;12.988;2023-03-01T06:14:35;9.23;;;6.80;;
5823;SDS011;2938;52.254;12.988;2023-03-01T06:17:01;15.23;;;7.82;;
5823;SDS011;2938;52.254;12.988;2023-03-01T06:19:26;16.33;;;8.45;;
5823;SDS011;2938;52.254;12.988;2023-03-01T06:21:51;10.82;;;7.32;;
5823;SDS011;2938;52.254;12.988;2023-03-01T06:24:20;13.07;;;7.03;;
5823;SDS011;2938;52.254;12.988;2023-03-01T06:27:03;21.05;;;8.50;;
5823;SDS011;2938;52.254;12.988;2023-03-01T06:29:28;18.17;;;7.60;;
5823;SDS011;2938;52.254;12.988;2023-03-01T06:31:54;14.63;;;7.72;;
5823;SDS011;2938;52.254;12.988;2023-03-01T06:34:23;13.70;;;7.70;;
5823;SDS011;2938;52.254;12.988;2023-03-01T06:36:56;15.88;;;8.50;;
5823;SDS011;2938;52.254;12.988;2023-03-01T06:39:23;12.93;;;6.55;;
5823;SDS011;2938;52.254;12.988;2023-03-01T06:42:00;16.63;;;8.95;;
5823;SDS011;2938;52.254;12.988;2023-03-01T06:47:11;15.00;;;7.65;;
5823;SDS011;2938;52.254;12.988;2023-03-01T06:49:36;22.20;;;8.32;;
5823;SDS011;2938;52.254;12.988;2023-03-01T06:52:02;12.38;;;7.07;;
5823;SDS011;2938;52.254;12.988;2023-03-01T07:00:30;21.38;;;10.32;;
5823;SDS011;2938;52.254;12.988;2023-03-01T07:03:16;21.83;;;10.77;;
5823;SDS011;2938;52.254;12.988;2023-03-01T07:05:53;20.73;;;10.02;;
5823;SDS011;2938;52.254;12.988;2023-03-01T07:08:26;17.25;;;8.80;;
5823;SDS011;2938;52.254;12.988;2023-03-01T07:10:57;17.52;;;10.43;;
5823;SDS011;2938;52.254;12.988;2023-03-01T07:13:26;19.10;;;10.40;;
5823;SDS011;2938;52.254;12.988;2023-03-01T07:15:57;22.88;;;9.40;;
5823;SDS011;2938;52.254;12.988;2023-03-01T07:18:34;13.57;;;7.97;;
5823;SDS011;2938;52.254;12.988;2023-03-01T07:21:12;12.13;;;8.57;;
5823;SDS011;2938;52.254;12.988;2023-03-01T07:23:46;24.02;;;12.55;;
5823;SDS011;2938;52.254;12.988;2023-03-01T07:26:12;28.67;;;11.82;;
5823;SDS011;2938;52.254;12.988;2023-03-01T07:28:37;19.08;;;10.80;;
5823;SDS011;2938;52.254;12.988;2023-03-01T07:31:04;18.77;;;10.88;;
5823;SDS011;2938;52.254;12.988;2023-03-01T07:33:30;14.60;;;9.85;;
5823;SDS011;2938;52.254;12.988;2023-03-01T07:35:59;21.27;;;13.15;;
5823;SDS011;2938;52.254;12.988;2023-03-01T07:38:27;24.00;;;12.45;;
5823;SDS011;2938;52.254;12.988;2023-03-01T07:40:53;16.77;;;10.30;;
5823;SDS011;2938;52.254;12.988;2023-03-01T07:43:26;15.13;;;10.35;;
5823;SDS011;2938;52.254;12.988;2023-03-01T07:45:58;21.75;;;10.30;;
5823;SDS011;2938;52.254;12.988;2023-03-01T07:48:34;14.05;;;9.50;;
5823;SDS011;2938;52.254;12.988;2023-03-01T07:51:23;17.95;;;10.90;;
5823;SDS011;2938;52.254;12.988;2023-03-01T07:53:51;16.17;;;10.68;;
5823;SDS011;2938;52.254;12.988;2023-03-01T07:56:19;17.50;;;9.35;;
5823;SDS011;2938;52.254;12.988;2023-03-01T07:58:50;13.82;;;9.40;;
5823;SDS011;2938;52.254;12.988;2023-03-01T08:01:17;16.67;;;10.00;;
5823;SDS011;2938;52.254;12.988;2023-03-01T08:03:47;14.90;;;10.10;;
5823;SDS011;2938;52.254;12.988;2023-03-01T08:06:13;16.98;;;11.13;;
5823;SDS011;2938;52.254;12.988;2023-03-01T08:08:42;14.48;;;9.55;;
5823;SDS011;2938;52.254;12.988;2023-03-01T08:11:14;20.48;;;10.13;;
5823;SDS011;2938;52.254;12.988;2023-03-01T08:13:42;18.33;;;11.27;;
5823;SDS011;2938;52.254;12.988;2023-03-01T08:16:11;20.23;;;11.75;;
5823;SDS011;2938;52.254;12.988;2023-03-01T08:24:41;25.85;;;15.73;;
5823;SDS011;2938;52.254;12.988;2023-03-01T08:27:06;28.27;;;17.08;;
5823;SDS011;2938;52.254;12.988;2023-03-01T08:29:34;30.35;;;16.90;;
5823;SDS011;2938;52.254;12.988;2023-03-01T08:32:02;29.15;;;15.93;;
5823;SDS011;2938;52.254;12.988;2023-03-01T08:34:42;21.98;;;15.27;;
5823;SDS011;2938;52.254;12.988;2023-03-01T08:37:34;23.80;;;14.27;;
5823;SDS011;2938;52.254;12.988;2023-03-01T08:40:06;18.25;;;12.35;;
5823;SDS011;2938;52.254;12.988;2023-03-01T08:45:44;17.90;;;10.98;;
5823;SDS011;2938;52.254;12.988;2023-03-01T08:50:50;25.38;;;10.73;;
5823;SDS011;2938;52.254;12.988;2023-03-01T08:53:16;17.75;;;9.85;;
5823;SDS011;2938;52.254;12.988;2023-03-01T08:55:50;16.88;;;11.93;;
5823;SDS011;2938;52.254;12.988;2023-03-01T08:58:43;14.70;;;10.98;;
5823;SDS011;2938;52.254;12.988;2023-03-01T09:10:31;14.77;;;10.27;;
5823;SDS011;2938;52.254;12.988;2023-03-01T09:13:15;22.48;;;12.52;;
5823;SDS011;2938;52.254;12.988;2023-03-01T09:15:50;14.02;;;9.70;;
5823;SDS011;2938;52.254;12.988;2023-03-01T09:18:52;17.55;;;9.95;;
5823;SDS011;2938;52.254;12.988;2023-03-01T09:24:23;15.43;;;9.45;;
5823;SDS011;2938;52.254;12.988;2023-03-01T09:26:49;19.10;;;9.68;;
5823;SDS011;2938;52.254;12.988;2023-03-01T09:29:16;12.38;;;9.02;;
5823;SDS011;2938;52.254;12.988;2023-03-01T09:31:56;16.48;;;9.55;;
5823;SDS011;2938;52.254;12.988;2023-03-01T09:34:27;12.00;;;8.07;;
5823;SDS011;2938;52.254;12.988;2023-03-01T09:37:22;17.52;;;9.68;;
5823;SDS011;2938;52.254;12.988;2023-03-01T09:40:14;16.27;;;10.00;;
5823;SDS011;2938;52.254;12.988;2023-03-01T09:45:54;17.40;;;10.75;;
5823;SDS011;2938;52.254;12.988;2023-03-01T09:48:33;14.02;;;10.13;;
5823;SDS011;2938;52.254;12.988;2023-03-01T09:54:53;13.50;;;8.20;;
5823;SDS011;2938;52.254;12.988;2023-03-01T10:00:11;15.93;;;9.05;;
5823;SDS011;2938;52.254;12.988;2023-03-01T10:02:52;14.73;;;8.85;;
5823;SDS011;2938;52.254;12.988;2023-03-01T10:08:52;11.10;;;7.68;;
5823;SDS011;2938;52.254;12.988;2023-03-01T10:11:39;21.83;;;14.60;;
5823;SDS011;2938;52.254;12.988;2023-03-01T10:20:33;12.95;;;9.27;;
5823;SDS011;2938;52.254;12.988;2023-03-01T10:23:08;13.30;;;9.20;;
5823;SDS011;2938;52.254;12.988;2023-03-01T10:25:43;16.42;;;7.60;;
5823;SDS011;2938;52.254;12.988;2023-03-01T10:28:26;21.83;;;14.02;;
5823;SDS011;2938;52.254;12.988;2023-03-01T10:31:11;32.63;;;20.92;;
5823;SDS011;2938;52.254;12.988;2023-03-01T10:33:43;13.57;;;9.10;;
5823;SDS011;2938;52.254;12.988;2023-03-01T10:36:09;13.95;;;9.13;;
5823;SDS011;2938;52.254;12.988;2023-03-01T10:41:20;10.60;;;6.72;;
5823;SDS011;2938;52.254;12.988;2023-03-01T10:43:55;20.00;;;8.68;;
5823;SDS011;2938;52.254;12.988;2023-03-01T10:46:30;12.77;;;7.22;;
5823;SDS011;2938;52.254;12.988;2023-03-01T10:54:43;11.52;;;7.20;;
5823;SDS011;2938;52.254;12.988;2023-03-01T10:57:27;13.10;;;7.15;;
5823;SDS011;2938;52.254;12.988;2023-03-01T11:05:28;9.93;;;6.13;;
5823;SDS011;2938;52.254;12.988;2023-03-01T11:08:02;10.00;;;7.40;;
5823;SDS011;2938;52.254;12.988;2023-03-01T11:10:29;12.35;;;7.15;;
5823;SDS011;2938;52.254;12.988;2023-03-01T11:13:14;11.23;;;6.53;;
5823;SDS011;2938;52.254;12.988;2023-03-01T11:15:41;8.98;;;6.28;;
5823;SDS011;2938;52.254;12.988;2023-03-01T11:21:05;13.65;;;7.03;;
5823;SDS011;2938;52.254;12.988;2023-03-01T11:23:37;13.75;;;7.13;;
5823;SDS011;2938;52.254;12.988;2023-03-01T11:26:19;11.68;;;7.63;;
5823;SDS011;2938;52.254;12.988;2023-03-01T11:28:45;11.82;;;8.05;;
5823;SDS011;2938;52.254;12.988;2023-03-01T11:31:15;10.07;;;6.88;;
5823;SDS011;2938;52.254;12.988;2023-03-01T11:33:49;11.38;;;6.80;;
5823;SDS011;2938;52.254;12.988;2023-03-01T11:36:59;7.85;;;5.65;;
5823;SDS011;2938;52.254;12.988;2023-03-01T11:39:28;11.52;;;6.68;;
5823;SDS011;2938;52.254;12.988;2023-03-01T11:42:04;9.18;;;6.10;;
5823;SDS011;2938;52.254;12.988;2023-03-01T11:44:34;15.43;;;5.95;;
5823;SDS011;2938;52.254;12.988;2023-03-01T11:47:06;13.98;;;6.45;;
5823;SDS011;2938;52.254;12.988;2023-03-01T11:49:53;15.70;;;7.22;;
5823;SDS011;2938;52.254;12.988;2023-03-01T11:52:35;8.43;;;6.07;;
5823;SDS011;2938;52.254;12.988;2023-03-01T11:55:20;14.70;;;6.30;;
5823;SDS011;2938;52.254;12.988;2023-03-01T11:58:22;10.30;;;6.80;;
5823;SDS011;2938;52.254;12.988;2023-03-01T12:04:05;9.32;;;6.00;;
5823;SDS011;2938;52.254;12.988;2023-03-01T12:26:26;12.85;;;5.72;;
5823;SDS011;2938;52.254;12.988;2023-03-01T12:42:57;11.85;;;6.22;;
5823;SDS011;2938;52.254;12.988;2023-03-01T12:45:44;10.57;;;5.45;;
5823;SDS011;2938;52.254;12.988;2023-03-01T12:53:24;11.38;;;5.90;;
5823;SDS011;2938;52.254;12.988;2023-03-01T12:55:52;11.85;;;6.63;;
5823;SDS011;2938;52.254;12.988;2023-03-01T12:58:24;10.55;;;5.88;;
5823;SDS011;2938;52.254;12.988;2023-03-01T13:06:57;10.98;;;5.65;;
5823;SDS011;2938;52.254;12.988;2023-03-01T13:15:40;10.48;;;6.78;;
5823;SDS011;2938;52.254;12.988;2023-03-01T13:18:26;9.73;;;5.95;;
5823;SDS011;2938;52.254;12.988;2023-03-01T13:20:56;10.13;;;6.55;;
5823;SDS011;2938;52.254;12.988;2023-03-01T13:23:28;12.18;;;7.80;;
5823;SDS011;2938;52.254;12.988;2023-03-01T13:28:46;10.75;;;7.03;;
5823;SDS011;2938;52.254;12.988;2023-03-01T13:34:18;13.68;;;5.97;;
5823;SDS011;2938;52.254;12.988;2023-03-01T13:37:31;11.18;;;5.93;;
5823;SDS011;2938;52.254;12.988;2023-03-01T13:39:59;8.23;;;5.00;;
5823;SDS011;2938;52.254;12.988;2023-03-01T13:42:30;13.45;;;7.88;;
5823;SDS011;2938;52.254;12.988;2023-03-01T13:44:58;11.70;;;6.07;;
5823;SDS011;2938;52.254;12.988;2023-03-01T13:47:23;16.52;;;6.82;;
5823;SDS011;2938;52.254;12.988;2023-03-01T13:49:51;7.75;;;5.38;;
5823;SDS011;2938;52.254;12.988;2023-03-01T13:52:42;15.70;;;9.27;;
5823;SDS011;2938;52.254;12.988;2023-03-01T13:57:42;16.15;;;8.52;;
5823;SDS011;2938;52.254;12.988;2023-03-01T14:05:33;15.85;;;10.15;;
5823;SDS011;2938;52.254;12.988;2023-03-01T14:07:58;11.07;;;7.25;;
5823;SDS011;2938;52.254;12.988;2023-03-01T14:10:25;11.55;;;6.97;;
5823;SDS011;2938;52.254;12.988;2023-03-01T14:13:17;10.43;;;6.60;;
5823;SDS011;2938;52.254;12.988;2023-03-01T14:16:00;13.23;;;6.95;;
5823;SDS011;2938;52.254;12.988;2023-03-01T14:18:35;8.18;;;5.57;;
5823;SDS011;2938;52.254;12.988;2023-03-01T14:21:08;11.70;;;6.22;;
5823;SDS011;2938;52.254;12.988;2023-03-01T14:23:33;7.97;;;6.28;;
5823;SDS011;2938;52.254;12.988;2023-03-01T14:26:00;12.32;;;6.90;;
5823;SDS011;2938;52.254;12.988;2023-03-01T14:28:30;9.07;;;6.28;;
5823;SDS011;2938;52.254;12.988;2023-03-01T14:30:58;8.20;;;6.03;;
5823;SDS011;2938;52.254;12.988;2023-03-01T14:33:31;11.52;;;6.55;;
5823;SDS011;2938;52.254;12.988;2023-03-01T14:36:09;13.30;;;6.55;;
5823;SDS011;2938;52.254;12.988;2023-03-01T14:38:37;12.18;;;7.85;;
5823;SDS011;2938;52.254;12.988;2023-03-01T14:41:07;10.35;;;6.25;;
5823;SDS011;2938;52.254;12.988;2023-03-01T14:43:34;12.02;;;6.32;;
5823;SDS011;2938;52.254;12.988;2023-03-01T14:46:00;11.80;;;6.97;;
5823;SDS011;2938;52.254;12.988;2023-03-01T14:48:26;10.80;;;6.53;;
5823;SDS011;2938;52.254;12.988;2023-03-01T14:50:52;10.35;;;7.18;;
5823;SDS011;2938;52.254;12.988;2023-03-01T14:53:18;13.00;;;6.68;;
5823;SDS011;2938;52.254;12.988;2023-03-01T14:55:46;11.95;;;6.35;;
5823;SDS011;2938;52.254;12.988;2023-03-01T14:58:15;14.00;;;6.57;;
5823;SDS011;2938;52.254;12.988;2023-03-01T15:01:04;11.02;;;6.63;;
5823;SDS011;2938;52.254;12.988;2023-03-01T15:06:10;17.60;;;7.45;;
5823;SDS011;2938;52.254;12.988;2023-03-01T15:08:44;12.68;;;7.15;;
5823;SDS011;2938;52.254;12.988;2023-03-01T15:13:53;9.98;;;7.22;;
5823;SDS011;2938;52.254;12.988;2023-03-01T15:16:20;12.80;;;7.28;;
5823;SDS011;2938;52.254;12.988;2023-03-01T15:19:04;10.10;;;6.38;;
5823;SDS011;2938;52.254;12.988;2023-03-01T15:21:34;11.55;;;6.80;;
5823;SDS011;2938;52.254;12.988;2023-03-01T15:24:31;9.88;;;7.00;;
5823;SDS011;2938;52.254;12.988;2023-03-01T15:27:04;12.60;;;7.03;;
5823;SDS011;2938;52.254;12.988;2023-03-01T15:29:51;17.25;;;7.38;;
5823;SDS011;2938;52.254;12.988;2023-03-01T15:32:24;9.82;;;5.72;;
5823;SDS011;2938;52.254;12.988;2023-03-01T15:38:00;11.05;;;5.68;;
5823;SDS011;2938;52.254;12.988;2023-03-01T15:40:27;17.52;;;7.72;;
5823;SDS011;2938;52.254;12.988;2023-03-01T15:42:59;9.18;;;5.70;;
5823;SDS011;2938;52.254;12.988;2023-03-01T15:45:26;11.25;;;7.03;;
5823;SDS011;2938;52.254;12.988;2023-03-01T15:47:54;11.13;;;6.20;;
5823;SDS011;2938;52.254;12.988;2023-03-01T15:53:14;10.70;;;7.47;;
5823;SDS011;2938;52.254;12.988;2023-03-01T15:55:45;12.63;;;7.93;;
5823;SDS011;2938;52.254;12.988;2023-03-01T15:58:33;19.50;;;8.30;;
5823;SDS011;2938;52.254;12.988;2023-03-01T16:00:58;14.77;;;7.00;;
5823;SDS011;2938;52.254;12.988;2023-03-01T16:03:44;14.70;;;6.40;;
5823;SDS011;2938;52.254;12.988;2023-03-01T16:06:15;10.93;;;7.33;;
5823;SDS011;2938;52.254;12.988;2023-03-01T16:08:43;14.27;;;6.07;;
5823;SDS011;2938;52.254;12.988;2023-03-01T16:11:11;12.73;;;7.20;;
5823;SDS011;2938;52.254;12.988;2023-03-01T16:13:41;13.27;;;5.82;;
5823;SDS011;2938;52.254;12.988;2023-03-01T16:16:08;10.43;;;5.72;;
5823;SDS011;2938;52.254;12.988;2023-03-01T16:18:37;13.65;;;5.95;;
5823;SDS011;2938;52.254;12.988;2023-03-01T16:21:03;10.90;;;6.28;;
5823;SDS011;2938;52.254;12.988;2023-03-01T16:23:49;10.30;;;5.47;;
5823;SDS011;2938;52.254;12.988;2023-03-01T16:26:14;9.55;;;6.68;;
5823;SDS011;2938;52.254;12.988;2023-03-01T16:28:46;11.80;;;5.70;;
5823;SDS011;2938;52.254;12.988;2023-03-01T16:31:20;9.37;;;6.90;;
5823;SDS011;2938;52.254;12.988;2023-03-01T16:33:46;13.48;;;7.20;;
5823;SDS011;2938;52.254;12.988;2023-03-01T16:36:18;13.35;;;7.07;;
5823;SDS011;2938;52.254;12.988;2023-03-01T16:38:44;11.63;;;5.55;;
5823;SDS011;2938;52.254;12.988;2023-03-01T16:41:14;7.20;;;4.70;;
5823;SDS011;2938;52.254;12.988;2023-03-01T16:43:40;8.63;;;3.58;;
5823;SDS011;2938;52.254;12.988;2023-03-01T16:46:12;7.63;;;4.65;;
5823;SDS011;2938;52.254;12.988;2023-03-01T16:48:41;10.23;;;5.00;;
5823;SDS011;2938;52.254;12.988;2023-03-01T16:51:06;9.68;;;5.10;;
5823;SDS011;2938;52.254;12.988;2023-03-01T16:53:32;26.20;;;11.00;;
5823;SDS011;2938;52.254;12.988;2023-03-01T16:55:59;23.13;;;14.10;;
5823;SDS011;2938;52.254;12.988;2023-03-01T16:58:24;12.65;;;8.63;;
5823;SDS011;2938;52.254;12.988;2023-03-01T17:00:51;26.67;;;16.83;;
5823;SDS011;2938;52.254;12.988;2023-03-01T17:03:18;8.57;;;5.80;;
5823;SDS011;2938;52.254;12.988;2023-03-01T17:05:44;14.25;;;8.25;;
5823;SDS011;2938;52.254;12.988;2023-03-01T17:08:09;13.35;;;5.90;;
5823;SDS011;2938;52.254;12.988;2023-03-01T17:10:34;10.23;;;4.38;;
5823;SDS011;2938;52.254;12.988;2023-03-01T17:13:00;7.22;;;4.45;;
5823;SDS011;2938;52.254;12.988;2023-03-01T17:15:28;9.75;;;4.78;;
5823;SDS011;2938;52.254;12.988;2023-03-01T17:17:53;9.85;;;3.85;;
5823;SDS011;2938;52.254;12.988;2023-03-01T17:20:18;5.90;;;4.40;;
5823;SDS011;2938;52.254;12.988;2023-03-01T17:22:44;9.00;;;3.55;;
5823;SDS011;2938;52.254;12.988;2023-03-01T17:25:14;6.78;;;3.78;;
5823;SDS011;2938;52.254;12.988;2023-03-01T17:27:43;5.80;;;3.57;;
5823;SDS011;2938;52.254;12.988;2023-03-01T17:30:12;6.53;;;3.60;;
5823;SDS011;2938;52.254;12.988;2023-03-01T17:32:38;11.05;;;4.18;;
5823;SDS011;2938;52.254;12.988;2023-03-01T17:35:14;8.15;;;3.65;;
5823;SDS011;2938;52.254;12.988;2023-03-01T17:37:42;10.00;;;4.28;;
5823;SDS011;2938;52.254;12.988;2023-03-01T17:40:13;10.02;;;4.45;;
5823;SDS011;2938;52.254;12.988;2023-03-01T17:42:39;10.45;;;4.55;;
5823;SDS011;2938;52.254;12.988;2023-03-01T17:45:04;8.80;;;4.32;;
5823;SDS011;2938;52.254;12.988;2023-03-01T17:47:30;5.32;;;4.32;;
5823;SDS011;2938;52.254;12.988;2023-03-01T17:49:55;5.18;;;3.75;;
5823;SDS011;2938;52.254;12.988;2023-03-01T17:52:20;7.10;;;4.10;;
5823;SDS011;2938;52.254;12.988;2023-03-01T17:54:47;6.20;;;3.50;;
5823;SDS011;2938;52.254;12.988;2023-03-01T17:57:12;4.65;;;3.20;;
5823;SDS011;2938;52.254;12.988;2023-03-01T17:59:38;7.35;;;3.33;;
5823;SDS011;2938;52.254;12.988;2023-03-01T18:02:03;7.78;;;4.53;;
5823;SDS011;2938;52.254;12.988;2023-03-01T18:04:28;6.43;;;4.13;;